sensor_id;sensor_type;location;lat;lon;timestamp;temperature;humidity
39675;DHT22;27790;50.840;4.386;2022-08-16T00:00:07;23.30;80.90
39675;DHT22;27790;50.840;4.386;2022-08-16T00:02:35;23.30;80.90
39675;DHT22;27790;50.840;4.386;2022-08-16T00:05:01;23.30;81.40
39675;DHT22;27790;50.840;4.386;2022-08-16T00:07:28;23.20;81.20
39675;DHT22;27790;50.840;4.386;2022-08-16T00:09:54;23.30;81.40
39675;DHT22;27790;50.840;4.386;2022-08-16T00:12:20;23.20;81.40
39675;DHT22;27790;50.840;4.386;2022-08-16T00:14:45;23.20;81.40
39675;DHT22;27790;50.840;4.386;2022-08-16T00:17:11;23.20;81.40
39675;DHT22;27790;50.840;4.386;2022-08-16T00:19:37;23.20;81.60
39675;DHT22;27790;50.840;4.386;2022-08-16T00:22:03;23.20;81.90
39675;DHT22;27790;50.840;4.386;2022-08-16T00:24:29;23.20;81.50
39675;DHT22;27790;50.840;4.386;2022-08-16T00:26:55;23.20;81.50
39675;DHT22;27790;50.840;4.386;2022-08-16T00:29:21;23.20;81.40
39675;DHT22;27790;50.840;4.386;2022-08-16T00:31:48;23.20;81.40
39675;DHT22;27790;50.840;4.386;2022-08-16T00:34:14;23.20;81.80
39675;DHT22;27790;50.840;4.386;2022-08-16T00:36:41;23.20;81.70
39675;DHT22;27790;50.840;4.386;2022-08-16T00:39:12;23.20;81.80
39675;DHT22;27790;50.840;4.386;2022-08-16T00:41:37;23.10;81.60
39675;DHT22;27790;50.840;4.386;2022-08-16T00:44:04;23.10;81.70
39675;DHT22;27790;50.840;4.386;2022-08-16T00:46:53;23.10;81.70
39675;DHT22;27790;50.840;4.386;2022-08-16T00:49:20;23.00;81.90
39675;DHT22;27790;50.840;4.386;2022-08-16T00:51:48;23.00;82.30
39675;DHT22;27790;50.840;4.386;2022-08-16T00:54:14;23.00;82.40
39675;DHT22;27790;50.840;4.386;2022-08-16T00:56:43;22.90;82.30
39675;DHT22;27790;50.840;4.386;2022-08-16T00:59:10;22.90;82.40
39675;DHT22;27790;50.840;4.386;2022-08-16T01:01:37;22.90;82.50
39675;DHT22;27790;50.840;4.386;2022-08-16T01:04:04;22.80;82.70
39675;DHT22;27790;50.840;4.386;2022-08-16T01:06:30;22.80;82.80
39675;DHT22;27790;50.840;4.386;2022-08-16T01:08:57;22.80;82.70
39675;DHT22;27790;50.840;4.386;2022-08-16T01:11:24;22.80;82.70
39675;DHT22;27790;50.840;4.386;2022-08-16T01:14:00;22.70;82.70
39675;DHT22;27790;50.840;4.386;2022-08-16T01:16:28;22.70;82.80
39675;DHT22;27790;50.840;4.386;2022-08-16T01:18:58;22.70;82.80
39675;DHT22;27790;50.840;4.386;2022-08-16T01:26:50;22.70;82.70
39675;DHT22;27790;50.840;4.386;2022-08-16T01:29:21;22.60;82.50
39675;DHT22;27790;50.840;4.386;2022-08-16T01:31:48;22.60;82.20
39675;DHT22;27790;50.840;4.386;2022-08-16T01:34:14;22.60;81.90
39675;DHT22;27790;50.840;4.386;2022-08-16T01:36:41;22.60;81.90
39675;DHT22;27790;50.840;4.386;2022-08-16T01:39:09;22.60;81.80
39675;DHT22;27790;50.840;4.386;2022-08-16T01:41:35;22.60;81.50
39675;DHT22;27790;50.840;4.386;2022-08-16T01:44:01;22.60;81.40
39675;DHT22;27790;50.840;4.386;2022-08-16T01:46:39;22.60;81.90
39675;DHT22;27790;50.840;4.386;2022-08-16T01:49:11;22.50;81.70
39675;DHT22;27790;50.840;4.386;2022-08-16T01:51:40;22.50;81.60
39675;DHT22;27790;50.840;4.386;2022-08-16T01:54:06;22.50;81.80
39675;DHT22;27790;50.840;4.386;2022-08-16T01:56:33;22.50;81.70
39675;DHT22;27790;50.840;4.386;2022-08-16T01:59:02;22.40;81.50
39675;DHT22;27790;50.840;4.386;2022-08-16T02:01:30;22.40;82.10
39675;DHT22;27790;50.840;4.386;2022-08-16T02:03:56;22.40;81.70
39675;DHT22;27790;50.840;4.386;2022-08-16T02:06:22;22.40;81.60
39675;DHT22;27790;50.840;4.386;2022-08-16T02:08:47;22.40;81.80
39675;DHT22;27790;50.840;4.386;2022-08-16T02:11:14;22.40;81.80
39675;DHT22;27790;50.840;4.386;2022-08-16T02:13:40;22.30;81.70
39675;DHT22;27790;50.840;4.386;2022-08-16T02:16:10;22.30;81.90
39675;DHT22;27790;50.840;4.386;2022-08-16T02:18:37;22.30;82.00
39675;DHT22;27790;50.840;4.386;2022-08-16T02:21:03;22.30;81.50
39675;DHT22;27790;50.840;4.386;2022-08-16T02:23:29;22.30;81.60
39675;DHT22;27790;50.840;4.386;2022-08-16T02:25:55;22.20;81.40
39675;DHT22;27790;50.840;4.386;2022-08-16T02:28:22;22.20;81.10
39675;DHT22;27790;50.840;4.386;2022-08-16T02:30:48;22.20;81.20
39675;DHT22;27790;50.840;4.386;2022-08-16T02:33:14;22.20;81.30
39675;DHT22;27790;50.840;4.386;2022-08-16T02:35:39;22.20;81.50
39675;DHT22;27790;50.840;4.386;2022-08-16T02:38:05;22.20;81.50
39675;DHT22;27790;50.840;4.386;2022-08-16T02:40:31;22.10;81.50
39675;DHT22;27790;50.840;4.386;2022-08-16T02:42:57;22.10;81.70
39675;DHT22;27790;50.840;4.386;2022-08-16T02:45:25;22.10;81.70
39675;DHT22;27790;50.840;4.386;2022-08-16T02:47:52;22.10;81.60
39675;DHT22;27790;50.840;4.386;2022-08-16T02:50:19;22.10;81.60
39675;DHT22;27790;50.840;4.386;2022-08-16T02:52:44;22.10;81.60
39675;DHT22;27790;50.840;4.386;2022-08-16T02:55:11;22.10;81.80
39675;DHT22;27790;50.840;4.386;2022-08-16T02:57:37;22.10;81.80
39675;DHT22;27790;50.840;4.386;2022-08-16T03:00:05;22.10;81.80
39675;DHT22;27790;50.840;4.386;2022-08-16T03:02:35;22.10;82.30
39675;DHT22;27790;50.840;4.386;2022-08-16T03:05:01;22.00;82.10
39675;DHT22;27790;50.840;4.386;2022-08-16T03:07:26;22.00;82.10
39675;DHT22;27790;50.840;4.386;2022-08-16T03:09:52;22.00;82.30
39675;DHT22;27790;50.840;4.386;2022-08-16T03:12:17;22.00;82.80
39675;DHT22;27790;50.840;4.386;2022-08-16T03:14:44;22.00;83.10
39675;DHT22;27790;50.840;4.386;2022-08-16T03:17:10;21.90;82.60
39675;DHT22;27790;50.840;4.386;2022-08-16T03:19:36;21.90;82.60
39675;DHT22;27790;50.840;4.386;2022-08-16T03:22:02;21.90;82.80
39675;DHT22;27790;50.840;4.386;2022-08-16T03:24:27;21.80;82.80
39675;DHT22;27790;50.840;4.386;2022-08-16T03:26:54;21.80;83.20
39675;DHT22;27790;50.840;4.386;2022-08-16T03:29:19;21.80;83.20
39675;DHT22;27790;50.840;4.386;2022-08-16T03:31:45;21.80;83.00
39675;DHT22;27790;50.840;4.386;2022-08-16T03:34:11;21.70;83.20
39675;DHT22;27790;50.840;4.386;2022-08-16T03:36:37;21.70;83.00
39675;DHT22;27790;50.840;4.386;2022-08-16T03:39:02;21.70;83.00
39675;DHT22;27790;50.840;4.386;2022-08-16T03:41:28;21.70;83.10
39675;DHT22;27790;50.840;4.386;2022-08-16T03:43:54;21.60;83.20
39675;DHT22;27790;50.840;4.386;2022-08-16T03:46:21;21.60;83.20
39675;DHT22;27790;50.840;4.386;2022-08-16T03:48:47;21.60;83.30
39675;DHT22;27790;50.840;4.386;2022-08-16T03:51:14;21.60;83.50
39675;DHT22;27790;50.840;4.386;2022-08-16T03:53:41;21.60;83.50
39675;DHT22;27790;50.840;4.386;2022-08-16T03:56:08;21.50;84.10
39675;DHT22;27790;50.840;4.386;2022-08-16T03:58:34;21.50;83.90
39675;DHT22;27790;50.840;4.386;2022-08-16T04:01:01;21.50;83.80
39675;DHT22;27790;50.840;4.386;2022-08-16T04:03:26;21.50;83.90
39675;DHT22;27790;50.840;4.386;2022-08-16T04:05:53;21.40;84.30
39675;DHT22;27790;50.840;4.386;2022-08-16T04:08:19;21.40;84.00
39675;DHT22;27790;50.840;4.386;2022-08-16T04:10:46;21.40;83.90
39675;DHT22;27790;50.840;4.386;2022-08-16T04:13:12;21.40;84.10
39675;DHT22;27790;50.840;4.386;2022-08-16T04:15:38;21.30;84.10
39675;DHT22;27790;50.840;4.386;2022-08-16T04:18:04;21.30;84.40
39675;DHT22;27790;50.840;4.386;2022-08-16T04:20:30;21.30;84.60
39675;DHT22;27790;50.840;4.386;2022-08-16T04:22:56;21.30;84.90
39675;DHT22;27790;50.840;4.386;2022-08-16T04:25:22;21.30;84.60
39675;DHT22;27790;50.840;4.386;2022-08-16T04:27:48;21.30;84.70
39675;DHT22;27790;50.840;4.386;2022-08-16T04:30:16;21.30;84.70
39675;DHT22;27790;50.840;4.386;2022-08-16T04:32:42;21.30;84.40
39675;DHT22;27790;50.840;4.386;2022-08-16T04:35:13;21.30;84.50
39675;DHT22;27790;50.840;4.386;2022-08-16T04:37:41;21.30;84.90
39675;DHT22;27790;50.840;4.386;2022-08-16T04:40:07;21.30;84.70
39675;DHT22;27790;50.840;4.386;2022-08-16T04:42:35;21.30;84.60
39675;DHT22;27790;50.840;4.386;2022-08-16T04:45:04;21.30;84.60
39675;DHT22;27790;50.840;4.386;2022-08-16T04:47:32;21.40;84.40
39675;DHT22;27790;50.840;4.386;2022-08-16T04:50:00;21.40;84.30
39675;DHT22;27790;50.840;4.386;2022-08-16T04:52:26;21.50;84.20
39675;DHT22;27790;50.840;4.386;2022-08-16T04:54:51;21.60;83.90
39675;DHT22;27790;50.840;4.386;2022-08-16T04:57:17;21.60;83.90
39675;DHT22;27790;50.840;4.386;2022-08-16T04:59:43;21.70;83.40
39675;DHT22;27790;50.840;4.386;2022-08-16T05:02:08;21.80;83.10
39675;DHT22;27790;50.840;4.386;2022-08-16T05:04:34;21.80;83.10
39675;DHT22;27790;50.840;4.386;2022-08-16T05:07:01;21.90;82.90
39675;DHT22;27790;50.840;4.386;2022-08-16T05:09:27;22.00;82.70
39675;DHT22;27790;50.840;4.386;2022-08-16T05:11:53;22.00;82.40
39675;DHT22;27790;50.840;4.386;2022-08-16T05:14:18;22.00;82.70
39675;DHT22;27790;50.840;4.386;2022-08-16T05:16:44;22.10;81.80
39675;DHT22;27790;50.840;4.386;2022-08-16T05:19:09;22.10;81.50
39675;DHT22;27790;50.840;4.386;2022-08-16T05:21:35;22.20;81.40
39675;DHT22;27790;50.840;4.386;2022-08-16T05:24:03;22.20;81.60
39675;DHT22;27790;50.840;4.386;2022-08-16T05:26:30;22.20;81.60
39675;DHT22;27790;50.840;4.386;2022-08-16T05:28:57;22.20;81.20
39675;DHT22;27790;50.840;4.386;2022-08-16T05:31:25;22.30;80.80
39675;DHT22;27790;50.840;4.386;2022-08-16T05:33:50;22.40;81.10
39675;DHT22;27790;50.840;4.386;2022-08-16T05:36:16;22.40;80.50
39675;DHT22;27790;50.840;4.386;2022-08-16T05:38:42;22.40;80.50
39675;DHT22;27790;50.840;4.386;2022-08-16T05:41:07;22.50;80.70
39675;DHT22;27790;50.840;4.386;2022-08-16T05:43:33;22.70;79.90
39675;DHT22;27790;50.840;4.386;2022-08-16T05:45:59;22.70;79.40
39675;DHT22;27790;50.840;4.386;2022-08-16T05:48:25;22.70;79.80
39675;DHT22;27790;50.840;4.386;2022-08-16T05:50:50;22.80;79.50
39675;DHT22;27790;50.840;4.386;2022-08-16T05:53:17;22.80;79.00
39675;DHT22;27790;50.840;4.386;2022-08-16T05:55:42;22.80;79.20
39675;DHT22;27790;50.840;4.386;2022-08-16T05:58:08;22.80;78.90
39675;DHT22;27790;50.840;4.386;2022-08-16T06:00:34;23.00;79.40
39675;DHT22;27790;50.840;4.386;2022-08-16T06:03:01;23.30;78.20
39675;DHT22;27790;50.840;4.386;2022-08-16T06:05:26;23.40;77.60
39675;DHT22;27790;50.840;4.386;2022-08-16T06:07:52;23.40;77.30
39675;DHT22;27790;50.840;4.386;2022-08-16T06:10:18;23.50;77.40
39675;DHT22;27790;50.840;4.386;2022-08-16T06:12:44;23.60;77.10
39675;DHT22;27790;50.840;4.386;2022-08-16T06:15:14;23.60;77.00
39675;DHT22;27790;50.840;4.386;2022-08-16T06:17:40;23.70;76.70
39675;DHT22;27790;50.840;4.386;2022-08-16T06:20:07;23.90;75.60
39675;DHT22;27790;50.840;4.386;2022-08-16T06:22:36;23.90;75.40
39675;DHT22;27790;50.840;4.386;2022-08-16T06:25:03;23.90;76.00
39675;DHT22;27790;50.840;4.386;2022-08-16T06:27:28;23.90;75.80
39675;DHT22;27790;50.840;4.386;2022-08-16T06:29:54;23.90;75.50
39675;DHT22;27790;50.840;4.386;2022-08-16T06:32:20;24.00;75.00
39675;DHT22;27790;50.840;4.386;2022-08-16T06:34:45;24.10;74.60
39675;DHT22;27790;50.840;4.386;2022-08-16T06:37:11;24.10;74.70
39675;DHT22;27790;50.840;4.386;2022-08-16T06:39:36;24.10;74.80
39675;DHT22;27790;50.840;4.386;2022-08-16T06:42:02;24.10;75.20
39675;DHT22;27790;50.840;4.386;2022-08-16T06:44:28;24.20;75.10
39675;DHT22;27790;50.840;4.386;2022-08-16T06:46:53;24.20;75.30
39675;DHT22;27790;50.840;4.386;2022-08-16T06:49:19;24.10;74.80
39675;DHT22;27790;50.840;4.386;2022-08-16T06:51:45;24.20;75.00
39675;DHT22;27790;50.840;4.386;2022-08-16T06:54:11;24.20;74.10
39675;DHT22;27790;50.840;4.386;2022-08-16T06:56:37;24.30;74.40
39675;DHT22;27790;50.840;4.386;2022-08-16T06:59:03;24.50;73.90
39675;DHT22;27790;50.840;4.386;2022-08-16T07:01:29;24.50;73.90
39675;DHT22;27790;50.840;4.386;2022-08-16T07:03:55;24.50;73.70
39675;DHT22;27790;50.840;4.386;2022-08-16T07:06:21;24.50;72.80
39675;DHT22;27790;50.840;4.386;2022-08-16T07:08:47;24.60;73.10
39675;DHT22;27790;50.840;4.386;2022-08-16T07:11:14;24.80;72.00
39675;DHT22;27790;50.840;4.386;2022-08-16T07:13:40;25.00;71.20
39675;DHT22;27790;50.840;4.386;2022-08-16T07:16:06;25.60;70.40
39675;DHT22;27790;50.840;4.386;2022-08-16T07:18:36;26.20;68.70
39675;DHT22;27790;50.840;4.386;2022-08-16T07:21:02;26.90;66.40
39675;DHT22;27790;50.840;4.386;2022-08-16T07:23:28;27.60;65.10
39675;DHT22;27790;50.840;4.386;2022-08-16T07:25:54;28.10;63.50
39675;DHT22;27790;50.840;4.386;2022-08-16T07:28:19;28.30;62.50
39675;DHT22;27790;50.840;4.386;2022-08-16T07:30:45;28.40;62.00
39675;DHT22;27790;50.840;4.386;2022-08-16T07:33:12;28.70;62.50
39675;DHT22;27790;50.840;4.386;2022-08-16T07:35:39;29.20;61.00
39675;DHT22;27790;50.840;4.386;2022-08-16T07:38:05;29.90;59.20
39675;DHT22;27790;50.840;4.386;2022-08-16T07:40:32;30.40;58.00
39675;DHT22;27790;50.840;4.386;2022-08-16T07:42:58;30.70;56.80
39675;DHT22;27790;50.840;4.386;2022-08-16T07:45:24;30.60;55.90
39675;DHT22;27790;50.840;4.386;2022-08-16T07:47:49;30.30;56.40
39675;DHT22;27790;50.840;4.386;2022-08-16T07:50:15;30.20;56.50
39675;DHT22;27790;50.840;4.386;2022-08-16T07:52:42;30.40;56.40
39675;DHT22;27790;50.840;4.386;2022-08-16T07:55:10;30.60;55.50
39675;DHT22;27790;50.840;4.386;2022-08-16T07:57:38;30.40;54.60
39675;DHT22;27790;50.840;4.386;2022-08-16T08:00:05;30.50;55.20
39675;DHT22;27790;50.840;4.386;2022-08-16T08:02:32;30.50;54.50
39675;DHT22;27790;50.840;4.386;2022-08-16T08:04:57;30.60;54.00
39675;DHT22;27790;50.840;4.386;2022-08-16T08:07:23;30.70;53.40
39675;DHT22;27790;50.840;4.386;2022-08-16T08:09:49;30.80;53.90
39675;DHT22;27790;50.840;4.386;2022-08-16T08:12:15;30.90;53.70
39675;DHT22;27790;50.840;4.386;2022-08-16T08:14:44;31.00;53.50
39675;DHT22;27790;50.840;4.386;2022-08-16T08:17:10;31.10;53.00
39675;DHT22;27790;50.840;4.386;2022-08-16T08:19:36;31.40;53.00
39675;DHT22;27790;50.840;4.386;2022-08-16T08:22:02;31.60;52.70
39675;DHT22;27790;50.840;4.386;2022-08-16T08:24:28;31.80;52.00
39675;DHT22;27790;50.840;4.386;2022-08-16T08:26:57;32.00;51.70
39675;DHT22;27790;50.840;4.386;2022-08-16T08:29:26;32.00;50.90
39675;DHT22;27790;50.840;4.386;2022-08-16T08:31:52;32.00;51.50
39675;DHT22;27790;50.840;4.386;2022-08-16T08:34:18;32.10;50.70
39675;DHT22;27790;50.840;4.386;2022-08-16T08:36:45;32.30;50.30
39675;DHT22;27790;50.840;4.386;2022-08-16T08:39:13;32.40;50.10
39675;DHT22;27790;50.840;4.386;2022-08-16T08:41:41;32.50;50.20
39675;DHT22;27790;50.840;4.386;2022-08-16T08:44:06;32.70;49.60
39675;DHT22;27790;50.840;4.386;2022-08-16T08:46:32;32.60;49.30
39675;DHT22;27790;50.840;4.386;2022-08-16T08:48:58;32.70;49.50
39675;DHT22;27790;50.840;4.386;2022-08-16T08:51:23;32.80;48.60
39675;DHT22;27790;50.840;4.386;2022-08-16T08:53:50;32.80;48.50
39675;DHT22;27790;50.840;4.386;2022-08-16T08:56:16;33.20;48.30
39675;DHT22;27790;50.840;4.386;2022-08-16T08:58:42;33.20;48.20
39675;DHT22;27790;50.840;4.386;2022-08-16T09:01:07;33.40;47.70
39675;DHT22;27790;50.840;4.386;2022-08-16T09:03:34;33.70;47.10
39675;DHT22;27790;50.840;4.386;2022-08-16T09:06:00;34.00;47.30
39675;DHT22;27790;50.840;4.386;2022-08-16T09:08:26;34.30;46.50
39675;DHT22;27790;50.840;4.386;2022-08-16T09:10:53;34.50;46.40
39675;DHT22;27790;50.840;4.386;2022-08-16T09:13:21;34.30;45.40
39675;DHT22;27790;50.840;4.386;2022-08-16T09:15:47;34.30;45.70
39675;DHT22;27790;50.840;4.386;2022-08-16T09:18:14;34.20;45.20
39675;DHT22;27790;50.840;4.386;2022-08-16T09:20:42;34.10;45.30
39675;DHT22;27790;50.840;4.386;2022-08-16T09:23:08;33.50;45.80
39675;DHT22;27790;50.840;4.386;2022-08-16T09:25:35;33.00;46.80
39675;DHT22;27790;50.840;4.386;2022-08-16T09:28:01;32.60;47.40
39675;DHT22;27790;50.840;4.386;2022-08-16T09:30:27;32.40;47.20
39675;DHT22;27790;50.840;4.386;2022-08-16T09:32:53;32.10;47.00
39675;DHT22;27790;50.840;4.386;2022-08-16T09:35:20;31.70;48.60
39675;DHT22;27790;50.840;4.386;2022-08-16T09:37:46;31.40;49.10
39675;DHT22;27790;50.840;4.386;2022-08-16T09:40:12;31.20;49.50
39675;DHT22;27790;50.840;4.386;2022-08-16T09:42:38;31.00;50.30
39675;DHT22;27790;50.840;4.386;2022-08-16T09:45:06;31.10;50.70
39675;DHT22;27790;50.840;4.386;2022-08-16T09:47:33;30.90;51.40
39675;DHT22;27790;50.840;4.386;2022-08-16T09:50:02;30.40;52.50
39675;DHT22;27790;50.840;4.386;2022-08-16T09:52:27;30.00;54.80
39675;DHT22;27790;50.840;4.386;2022-08-16T09:54:53;29.90;54.00
39675;DHT22;27790;50.840;4.386;2022-08-16T09:57:18;29.90;55.20
39675;DHT22;27790;50.840;4.386;2022-08-16T09:59:44;29.70;54.60
39675;DHT22;27790;50.840;4.386;2022-08-16T10:02:09;29.30;54.60
39675;DHT22;27790;50.840;4.386;2022-08-16T10:04:38;29.20;55.30
39675;DHT22;27790;50.840;4.386;2022-08-16T10:07:04;29.10;55.60
39675;DHT22;27790;50.840;4.386;2022-08-16T10:09:30;29.00;56.20
39675;DHT22;27790;50.840;4.386;2022-08-16T10:11:56;28.80;57.30
39675;DHT22;27790;50.840;4.386;2022-08-16T10:14:32;28.80;57.30
39675;DHT22;27790;50.840;4.386;2022-08-16T10:17:00;28.80;57.30
39675;DHT22;27790;50.840;4.386;2022-08-16T10:19:26;28.70;58.40
39675;DHT22;27790;50.840;4.386;2022-08-16T10:21:54;28.70;59.20
39675;DHT22;27790;50.840;4.386;2022-08-16T10:24:20;28.60;58.60
39675;DHT22;27790;50.840;4.386;2022-08-16T10:26:45;28.80;58.00
39675;DHT22;27790;50.840;4.386;2022-08-16T10:29:12;28.70;58.20
39675;DHT22;27790;50.840;4.386;2022-08-16T10:31:38;28.90;59.10
39675;DHT22;27790;50.840;4.386;2022-08-16T10:34:04;28.90;58.50
39675;DHT22;27790;50.840;4.386;2022-08-16T10:36:30;28.70;58.20
39675;DHT22;27790;50.840;4.386;2022-08-16T10:38:56;28.60;58.70
39675;DHT22;27790;50.840;4.386;2022-08-16T10:41:21;28.60;58.80
39675;DHT22;27790;50.840;4.386;2022-08-16T10:43:48;28.80;58.70
39675;DHT22;27790;50.840;4.386;2022-08-16T10:46:14;29.00;58.60
39675;DHT22;27790;50.840;4.386;2022-08-16T10:48:41;29.10;57.70
39675;DHT22;27790;50.840;4.386;2022-08-16T10:51:08;29.30;58.10
39675;DHT22;27790;50.840;4.386;2022-08-16T10:53:35;29.70;57.70
39675;DHT22;27790;50.840;4.386;2022-08-16T10:56:04;29.80;56.70
39675;DHT22;27790;50.840;4.386;2022-08-16T10:58:30;30.00;56.50
39675;DHT22;27790;50.840;4.386;2022-08-16T11:00:56;30.00;55.80
39675;DHT22;27790;50.840;4.386;2022-08-16T11:03:21;29.80;56.50
39675;DHT22;27790;50.840;4.386;2022-08-16T11:05:47;29.80;56.60
39675;DHT22;27790;50.840;4.386;2022-08-16T11:08:13;29.80;56.50
39675;DHT22;27790;50.840;4.386;2022-08-16T11:10:42;29.90;56.70
39675;DHT22;27790;50.840;4.386;2022-08-16T11:13:10;29.90;56.50
39675;DHT22;27790;50.840;4.386;2022-08-16T11:15:37;30.10;56.40
39675;DHT22;27790;50.840;4.386;2022-08-16T11:18:05;30.20;55.30
39675;DHT22;27790;50.840;4.386;2022-08-16T11:20:32;30.30;55.20
39675;DHT22;27790;50.840;4.386;2022-08-16T11:22:58;30.50;55.20
39675;DHT22;27790;50.840;4.386;2022-08-16T11:25:26;30.60;56.60
39675;DHT22;27790;50.840;4.386;2022-08-16T11:27:53;30.70;54.90
39675;DHT22;27790;50.840;4.386;2022-08-16T11:30:20;30.70;54.30
39675;DHT22;27790;50.840;4.386;2022-08-16T11:32:45;30.80;55.20
39675;DHT22;27790;50.840;4.386;2022-08-16T11:35:17;30.80;55.70
39675;DHT22;27790;50.840;4.386;2022-08-16T11:37:51;30.80;55.00
39675;DHT22;27790;50.840;4.386;2022-08-16T11:40:19;30.80;55.10
39675;DHT22;27790;50.840;4.386;2022-08-16T11:42:45;30.70;53.60
39675;DHT22;27790;50.840;4.386;2022-08-16T11:45:11;30.50;54.40
39675;DHT22;27790;50.840;4.386;2022-08-16T11:47:37;30.30;55.50
39675;DHT22;27790;50.840;4.386;2022-08-16T11:50:06;30.20;54.50
39675;DHT22;27790;50.840;4.386;2022-08-16T11:52:34;30.20;54.60
39675;DHT22;27790;50.840;4.386;2022-08-16T11:55:00;29.90;55.70
39675;DHT22;27790;50.840;4.386;2022-08-16T11:57:26;29.90;55.80
39675;DHT22;27790;50.840;4.386;2022-08-16T11:59:52;29.80;55.40
39675;DHT22;27790;50.840;4.386;2022-08-16T12:02:19;29.90;55.20
39675;DHT22;27790;50.840;4.386;2022-08-16T12:04:45;29.80;56.30
39675;DHT22;27790;50.840;4.386;2022-08-16T12:07:11;29.80;54.90
39675;DHT22;27790;50.840;4.386;2022-08-16T12:09:37;29.90;55.40
39675;DHT22;27790;50.840;4.386;2022-08-16T12:12:03;29.90;54.60
39675;DHT22;27790;50.840;4.386;2022-08-16T12:14:29;29.90;55.30
39675;DHT22;27790;50.840;4.386;2022-08-16T12:16:56;29.90;55.00
39675;DHT22;27790;50.840;4.386;2022-08-16T12:19:23;29.90;55.30
39675;DHT22;27790;50.840;4.386;2022-08-16T12:21:49;29.80;54.50
39675;DHT22;27790;50.840;4.386;2022-08-16T12:24:14;29.70;54.40
39675;DHT22;27790;50.840;4.386;2022-08-16T12:26:40;29.60;55.20
39675;DHT22;27790;50.840;4.386;2022-08-16T12:29:06;29.60;56.70
39675;DHT22;27790;50.840;4.386;2022-08-16T12:31:32;29.50;56.00
39675;DHT22;27790;50.840;4.386;2022-08-16T12:33:57;29.40;55.60
39675;DHT22;27790;50.840;4.386;2022-08-16T12:36:24;29.40;56.60
39675;DHT22;27790;50.840;4.386;2022-08-16T12:38:50;29.60;57.10
39675;DHT22;27790;50.840;4.386;2022-08-16T12:41:16;29.70;55.00
39675;DHT22;27790;50.840;4.386;2022-08-16T12:43:42;29.90;54.40
39675;DHT22;27790;50.840;4.386;2022-08-16T12:46:09;30.10;53.90
39675;DHT22;27790;50.840;4.386;2022-08-16T12:48:36;30.20;54.40
39675;DHT22;27790;50.840;4.386;2022-08-16T12:51:14;30.50;54.30
39675;DHT22;27790;50.840;4.386;2022-08-16T12:53:41;30.60;53.80
39675;DHT22;27790;50.840;4.386;2022-08-16T12:56:10;30.60;53.90
39675;DHT22;27790;50.840;4.386;2022-08-16T12:58:37;30.60;54.20
39675;DHT22;27790;50.840;4.386;2022-08-16T13:01:04;30.60;54.20
39675;DHT22;27790;50.840;4.386;2022-08-16T13:03:30;30.60;53.90
39675;DHT22;27790;50.840;4.386;2022-08-16T13:05:56;30.70;54.70
39675;DHT22;27790;50.840;4.386;2022-08-16T13:08:22;30.70;54.50
39675;DHT22;27790;50.840;4.386;2022-08-16T13:10:50;30.80;54.70
39675;DHT22;27790;50.840;4.386;2022-08-16T13:13:19;30.90;54.30
39675;DHT22;27790;50.840;4.386;2022-08-16T13:15:59;30.80;53.50
39675;DHT22;27790;50.840;4.386;2022-08-16T13:18:27;30.80;53.10
39675;DHT22;27790;50.840;4.386;2022-08-16T13:20:54;30.80;54.00
39675;DHT22;27790;50.840;4.386;2022-08-16T13:23:20;30.70;53.30
39675;DHT22;27790;50.840;4.386;2022-08-16T13:25:47;30.80;52.70
39675;DHT22;27790;50.840;4.386;2022-08-16T13:28:15;30.70;53.20
39675;DHT22;27790;50.840;4.386;2022-08-16T13:30:44;30.80;54.20
39675;DHT22;27790;50.840;4.386;2022-08-16T13:33:12;30.90;53.40
39675;DHT22;27790;50.840;4.386;2022-08-16T13:35:40;30.80;53.10
39675;DHT22;27790;50.840;4.386;2022-08-16T13:38:05;30.90;54.20
39675;DHT22;27790;50.840;4.386;2022-08-16T13:40:33;31.10;52.20
39675;DHT22;27790;50.840;4.386;2022-08-16T13:42:59;31.20;52.20
39675;DHT22;27790;50.840;4.386;2022-08-16T13:45:25;31.30;52.40
39675;DHT22;27790;50.840;4.386;2022-08-16T13:47:51;31.20;52.60
39675;DHT22;27790;50.840;4.386;2022-08-16T13:50:18;31.10;51.80
39675;DHT22;27790;50.840;4.386;2022-08-16T13:52:43;31.00;52.60
39675;DHT22;27790;50.840;4.386;2022-08-16T13:55:09;31.00;52.80
39675;DHT22;27790;50.840;4.386;2022-08-16T13:57:35;30.90;52.60
39675;DHT22;27790;50.840;4.386;2022-08-16T14:00:02;30.90;52.40
39675;DHT22;27790;50.840;4.386;2022-08-16T14:02:28;30.90;53.30
39675;DHT22;27790;50.840;4.386;2022-08-16T14:04:54;30.90;53.40
39675;DHT22;27790;50.840;4.386;2022-08-16T14:07:19;31.00;53.10
39675;DHT22;27790;50.840;4.386;2022-08-16T14:09:45;31.00;52.60
39675;DHT22;27790;50.840;4.386;2022-08-16T14:14:53;30.80;52.60
39675;DHT22;27790;50.840;4.386;2022-08-16T14:17:20;30.80;53.10
39675;DHT22;27790;50.840;4.386;2022-08-16T14:19:47;30.80;53.40
39675;DHT22;27790;50.840;4.386;2022-08-16T14:22:18;30.80;52.90
39675;DHT22;27790;50.840;4.386;2022-08-16T14:24:46;30.90;53.10
39675;DHT22;27790;50.840;4.386;2022-08-16T14:27:12;30.90;53.00
39675;DHT22;27790;50.840;4.386;2022-08-16T14:29:38;30.90;53.40
39675;DHT22;27790;50.840;4.386;2022-08-16T14:32:05;31.00;53.00
39675;DHT22;27790;50.840;4.386;2022-08-16T14:34:31;31.00;51.90
39675;DHT22;27790;50.840;4.386;2022-08-16T14:36:56;31.00;51.40
39675;DHT22;27790;50.840;4.386;2022-08-16T14:39:22;31.00;52.70
39675;DHT22;27790;50.840;4.386;2022-08-16T14:41:48;31.00;51.50
39675;DHT22;27790;50.840;4.386;2022-08-16T14:44:14;31.10;51.50
39675;DHT22;27790;50.840;4.386;2022-08-16T14:46:39;31.00;50.90
39675;DHT22;27790;50.840;4.386;2022-08-16T14:49:05;31.00;51.30
39675;DHT22;27790;50.840;4.386;2022-08-16T14:51:30;31.00;51.50
39675;DHT22;27790;50.840;4.386;2022-08-16T14:53:56;31.10;51.40
39675;DHT22;27790;50.840;4.386;2022-08-16T14:56:23;31.10;52.70
39675;DHT22;27790;50.840;4.386;2022-08-16T14:58:49;31.20;52.50
39675;DHT22;27790;50.840;4.386;2022-08-16T15:01:15;31.10;51.70
39675;DHT22;27790;50.840;4.386;2022-08-16T15:03:40;31.00;52.40
39675;DHT22;27790;50.840;4.386;2022-08-16T15:06:06;31.00;51.90
39675;DHT22;27790;50.840;4.386;2022-08-16T15:08:32;30.90;52.10
39675;DHT22;27790;50.840;4.386;2022-08-16T15:10:58;30.80;53.60
39675;DHT22;27790;50.840;4.386;2022-08-16T15:13:26;30.60;52.00
39675;DHT22;27790;50.840;4.386;2022-08-16T15:15:52;30.60;53.00
39675;DHT22;27790;50.840;4.386;2022-08-16T15:18:18;30.70;52.20
39675;DHT22;27790;50.840;4.386;2022-08-16T15:20:44;30.60;52.00
39675;DHT22;27790;50.840;4.386;2022-08-16T15:23:10;30.60;51.80
39675;DHT22;27790;50.840;4.386;2022-08-16T15:25:41;30.70;52.60
39675;DHT22;27790;50.840;4.386;2022-08-16T15:28:09;30.70;52.30
39675;DHT22;27790;50.840;4.386;2022-08-16T15:30:36;30.80;52.20
39675;DHT22;27790;50.840;4.386;2022-08-16T15:33:06;30.90;51.80